This is the latest recevied weather packets stored in our database for station/object EB2EMZ-14. If no packets are shown the sender has not sent any weather packets the latest 10 day(s).
| Time | Temp. | Humidity | Pressure | Rain* | Wind** | Luminosity | Snow |
|---|---|---|---|---|---|---|---|
| 1777965909 | 14.44° C | 79% | 1012 hPa | 0 mm | - | 0 W/m² | - |
| 1777965609 | 14.44° C | 82% | 1012.1 hPa | 0 mm | - | 0 W/m² | - |
| 1777965309 | 13.89° C | 86% | 1012.1 hPa | 0 mm | - | 0 W/m² | - |
| 1777965010 | 12.22° C | 91% | 1012 hPa | 0 mm | - | 0 W/m² | - |
| 1777964710 | 11.11° C | 90% | 1011.9 hPa | 0 mm | - | 0 W/m² | - |
| 1777964409 | 10.56° C | 90% | 1011.9 hPa | 0 mm | - | 0 W/m² | - |
| 1777964108 | 10.56° C | 90% | 1012 hPa | 0 mm | - | 0 W/m² | - |
| 1777963810 | 10° C | 90% | 1011.9 hPa | 0 mm | - | 0 W/m² | - |
| 1777963509 | 10° C | 90% | 1011.9 hPa | 0 mm | - | 0 W/m² | - |
| 1777963210 | 10° C | 91% | 1012 hPa | 0 mm | - | 0 W/m² | - |
| 1777962909 | 10° C | 91% | 1012 hPa | 0 mm | - | 0 W/m² | - |
| 1777962608 | 9.44° C | 92% | 1011.9 hPa | 0 mm | - | 0 W/m² | - |
| 1777962310 | 8.89° C | 92% | 1011.9 hPa | 0 mm | - | 0 W/m² | - |
| 1777962009 | 8.33° C | 91% | 1011.8 hPa | 0 mm | - | 0 W/m² | - |
| 1777961709 | 8.33° C | 91% | 1011.8 hPa | 0 mm | - | 0 W/m² | - |
| 1777961409 | 7.78° C | 91% | 1011.6 hPa | 0 mm | - | 0 W/m² | - |
| 1777961108 | 7.78° C | 91% | 1011.6 hPa | 0 mm | - | 0 W/m² | - |
| 1777960809 | 7.78° C | 90% | 1011.7 hPa | 0 mm | - | 0 W/m² | - |
| 1777960509 | 7.22° C | 90% | 1011.6 hPa | 0.51 mm | - | 0 W/m² | - |
| 1777959909 | 7.22° C | 90% | 1011.6 hPa | 0.51 mm | - | 0 W/m² | - |
| 1777959608 | 7.22° C | 90% | 1011.8 hPa | 0.51 mm | - | 0 W/m² | - |
| 1777959309 | 7.22° C | 90% | 1011.7 hPa | 0.51 mm | - | 0 W/m² | - |
| 1777959010 | 7.22° C | 90% | 1011.6 hPa | 0.51 mm | - | 0 W/m² | - |
| 1777958709 | 7.22° C | 90% | 1011.6 hPa | 0.51 mm | - | 0 W/m² | - |
| 1777958410 | 7.22° C | 90% | 1011.8 hPa | 0.51 mm | - | 0 W/m² | - |
* Rain latest hour (hover to see other rain measurements)
** Current wind speed in m/s (hover to see current wind gust speed)